Time;durP1;ratioP1;P1;durP2;ratioP2;P2;SDS_P1;SDS_P2;PMS_P1;PMS_P2;Temp;Humidity;BMP_temperature;BMP_pressure;BME280_temperature;BME280_humidity;BME280_pressure;Samples;Min_cycle;Max_cycle;Signal;HPM_P1;HPM_P2
2023/06/20 00:00:50;;;;;;;22.35;16.63;;;18.70;99.90;;;;;;5050932;28;20086;-74
2023/06/20 00:03:16;;;;;;;22.60;17.27;;;18.70;99.90;;;;;;5052328;28;20448;-76
2023/06/20 00:05:43;;;;;;;22.20;16.52;;;18.60;99.90;;;;;;5051683;28;20057;-74
2023/06/20 00:08:09;;;;;;;25.15;18.38;;;18.60;99.90;;;;;;5052289;28;20056;-75
2023/06/20 00:10:34;;;;;;;21.55;16.85;;;18.60;99.90;;;;;;5053791;28;20068;-76
2023/06/20 00:13:00;;;;;;;24.75;17.67;;;18.60;99.90;;;;;;5054575;28;20048;-76
2023/06/20 00:15:27;;;;;;;22.08;17.27;;;18.60;99.90;;;;;;5070775;28;20048;-74
2023/06/20 00:17:53;;;;;;;23.58;16.77;;;18.70;99.90;;;;;;5054867;28;20136;-74
2023/06/20 00:20:19;;;;;;;21.05;16.10;;;18.70;99.90;;;;;;5072841;28;20409;-76
2023/06/20 00:22:50;;;;;;;21.42;16.73;;;18.70;99.90;;;;;;5072100;28;20048;-75
2023/06/20 00:25:17;;;;;;;21.10;17.77;;;18.70;99.90;;;;;;5072840;28;20083;-75
2023/06/20 00:27:42;;;;;;;26.65;17.92;;;18.70;99.90;;;;;;5071913;28;20045;-76
2023/06/20 00:30:09;;;;;;;21.20;17.00;;;18.60;99.90;;;;;;5021810;28;20048;-75
2023/06/20 00:32:35;;;;;;;21.77;17.80;;;18.70;99.90;;;;;;5054459;28;20456;-76
2023/06/20 00:35:01;;;;;;;25.90;18.10;;;18.70;99.90;;;;;;5054247;28;20048;-75
2023/06/20 00:37:27;;;;;;;22.95;17.15;;;18.60;99.90;;;;;;5073576;28;20101;-73
2023/06/20 00:39:53;;;;;;;22.38;17.17;;;18.60;99.90;;;;;;5022102;28;20478;-74
2023/06/20 00:42:23;;;;;;;23.45;17.10;;;18.60;99.90;;;;;;5037574;28;20113;-74
2023/06/20 00:44:50;;;;;;;22.27;17.33;;;18.50;99.90;;;;;;5070460;28;20044;-74
2023/06/20 00:47:19;;;;;;;20.90;16.55;;;18.50;99.90;;;;;;5053817;28;20478;-75
2023/06/20 00:49:47;;;;;;;25.83;17.05;;;18.40;99.90;;;;;;5071653;28;20044;-76
2023/06/20 00:52:24;;;;;;;20.70;16.40;;;18.40;99.90;;;;;;5038892;28;20048;-75
2023/06/20 00:54:50;;;;;;;25.17;16.02;;;18.30;99.90;;;;;;5075308;28;20535;-76
2023/06/20 00:57:18;;;;;;;20.33;16.17;;;18.30;99.90;;;;;;5058104;28;20072;-73
2023/06/20 00:59:45;;;;;;;21.10;15.52;;;18.30;99.90;;;;;;5058285;28;20041;-73
2023/06/20 01:02:14;;;;;;;20.42;15.95;;;18.30;99.90;;;;;;5057845;28;20538;-76
2023/06/20 01:04:42;;;;;;;21.23;15.05;;;18.30;99.90;;;;;;5074700;28;20056;-75
2023/06/20 01:07:31;;;;;;;18.67;15.57;;;18.30;99.90;;;;;;5075394;28;20062;-75
2023/06/20 01:10:22;;;;;;;20.35;14.38;;;18.20;99.90;;;;;;5075116;28;20043;-75
2023/06/20 01:12:55;;;;;;;18.02;14.07;;;18.20;99.90;;;;;;5073706;28;20444;-75
2023/06/20 01:15:50;;;;;;;17.08;13.35;;;18.20;99.90;;;;;;5057786;28;20048;-75
2023/06/20 01:18:19;;;;;;;16.05;11.82;;;18.20;99.90;;;;;;5057745;28;20197;-75
2023/06/20 01:21:10;;;;;;;18.00;12.35;;;18.10;99.90;;;;;;5057716;28;20045;-75
2023/06/20 01:23:49;;;;;;;16.42;11.73;;;18.10;99.90;;;;;;5040956;28;20052;-75
2023/06/20 01:26:26;;;;;;;13.48;10.60;;;18.10;99.90;;;;;;5075262;28;20076;-74
2023/06/20 01:29:13;;;;;;;15.50;11.15;;;18.10;99.90;;;;;;5056807;28;20052;-75
2023/06/20 01:31:44;;;;;;;13.88;10.60;;;18.00;99.90;;;;;;5075132;28;20044;-75
2023/06/20 01:34:16;;;;;;;13.38;10.63;;;18.00;99.90;;;;;;5074936;28;20058;-73
2023/06/20 01:36:46;;;;;;;13.85;11.18;;;18.00;99.90;;;;;;5056591;28;20051;-75
2023/06/20 01:39:17;;;;;;;13.65;11.05;;;18.00;99.90;;;;;;5074982;28;20044;-75
2023/06/20 01:41:45;;;;;;;18.08;11.98;;;17.90;99.90;;;;;;5072918;28;20047;-75
2023/06/20 01:44:14;;;;;;;16.95;10.93;;;17.90;99.90;;;;;;5056854;28;20059;-74
2023/06/20 01:46:40;;;;;;;14.98;11.35;;;17.90;99.90;;;;;;5056178;28;20040;-74
2023/06/20 01:49:07;;;;;;;17.65;11.02;;;17.90;99.90;;;;;;5056625;28;20394;-75
2023/06/20 01:51:33;;;;;;;15.98;11.25;;;17.90;99.90;;;;;;5023966;28;20055;-75
2023/06/20 01:54:03;;;;;;;14.93;10.38;;;17.90;99.90;;;;;;5023238;28;20060;-75
2023/06/20 01:56:30;;;;;;;14.73;10.93;;;17.80;99.90;;;;;;5074100;28;20048;-75
2023/06/20 01:58:59;;;;;;;14.10;10.57;;;17.80;99.90;;;;;;5073842;28;20047;-75
2023/06/20 02:01:26;;;;;;;17.08;11.30;;;17.80;99.90;;;;;;5074089;28;20052;-76
2023/06/20 02:03:54;;;;;;;16.20;10.20;;;17.80;99.90;;;;;;5038358;28;20106;-75
2023/06/20 02:06:21;;;;;;;15.50;10.32;;;17.80;99.90;;;;;;5073931;28;20497;-75
2023/06/20 02:08:48;;;;;;;14.55;10.50;;;17.80;99.90;;;;;;5056177;28;20110;-76
2023/06/20 02:11:14;;;;;;;14.93;9.93;;;17.80;99.90;;;;;;5074178;28;20060;-74
2023/06/20 02:13:41;;;;;;;12.90;9.90;;;17.90;99.90;;;;;;5055978;28;20088;-72
2023/06/20 02:16:08;;;;;;;14.13;9.88;;;17.90;99.90;;;;;;5056504;28;20049;-75
2023/06/20 02:18:35;;;;;;;14.05;10.00;;;17.90;99.90;;;;;;5056047;28;20044;-74
2023/06/20 02:21:17;;;;;;;11.82;9.20;;;17.80;99.90;;;;;;5039126;28;20466;-75
2023/06/20 02:23:46;;;;;;;11.23;9.05;;;17.90;99.90;;;;;;5072446;28;20048;-73
2023/06/20 02:26:16;;;;;;;12.20;9.45;;;17.90;99.90;;;;;;5072568;28;20056;-74
2023/06/20 02:28:46;;;;;;;14.38;8.35;;;17.90;99.90;;;;;;5072455;28;20048;-72
2023/06/20 02:31:24;;;;;;;12.00;8.57;;;17.90;99.90;;;;;;5073287;28;20478;-74
2023/06/20 02:33:53;;;;;;;12.80;8.38;;;17.80;99.90;;;;;;5055450;28;20052;-74
2023/06/20 02:36:25;;;;;;;12.32;8.88;;;17.90;99.90;;;;;;5073486;28;20070;-74
2023/06/20 02:38:57;;;;;;;13.23;9.48;;;17.90;99.90;;;;;;5073030;28;20363;-74
2023/06/20 02:41:23;;;;;;;12.85;10.13;;;17.90;99.90;;;;;;5073389;28;20410;-75
2023/06/20 02:43:50;;;;;;;12.73;9.77;;;17.80;99.90;;;;;;5039021;28;20080;-74
2023/06/20 02:46:18;;;;;;;12.43;9.82;;;17.90;99.90;;;;;;5073593;28;20482;-72
2023/06/20 02:49:10;;;;;;;14.35;10.10;;;17.90;99.90;;;;;;5055856;28;20551;-73
2023/06/20 02:51:55;;;;;;;14.70;10.13;;;17.90;99.90;;;;;;5032438;28;20052;-74
2023/06/20 02:54:33;;;;;;;16.48;10.20;;;17.90;99.90;;;;;;5055758;28;20052;-74
2023/06/20 02:57:02;;;;;;;13.80;10.32;;;17.80;99.90;;;;;;5055218;28;20558;-75
2023/06/20 02:59:31;;;;;;;17.50;11.13;;;17.80;99.90;;;;;;5073228;28;20057;-75
2023/06/20 03:02:00;;;;;;;14.60;11.40;;;17.80;99.90;;;;;;5054693;28;20455;-74
2023/06/20 03:04:32;;;;;;;16.92;12.00;;;17.80;99.90;;;;;;5055443;28;20434;-74
2023/06/20 03:07:01;;;;;;;16.90;12.82;;;17.80;99.90;;;;;;5054999;28;20053;-75
2023/06/20 03:09:29;;;;;;;18.48;13.10;;;17.80;99.90;;;;;;5072877;28;20048;-74
2023/06/20 03:11:56;;;;;;;17.60;13.43;;;17.80;99.90;;;;;;5072283;28;20059;-74
2023/06/20 03:14:22;;;;;;;17.67;13.15;;;17.80;99.90;;;;;;5054505;28;20053;-75
2023/06/20 03:16:48;;;;;;;17.02;13.30;;;17.70;99.90;;;;;;5072287;28;20044;-73
2023/06/20 03:19:14;;;;;;;17.08;13.77;;;17.70;99.90;;;;;;5054661;28;20051;-75
2023/06/20 03:21:40;;;;;;;17.25;13.20;;;17.70;99.90;;;;;;5037972;28;20044;-74
2023/06/20 03:24:06;;;;;;;16.05;12.82;;;17.70;99.90;;;;;;5054069;28;20045;-75
2023/06/20 03:26:33;;;;;;;15.27;12.77;;;17.60;99.90;;;;;;5072404;28;20044;-75
2023/06/20 03:28:59;;;;;;;18.73;13.52;;;17.60;99.90;;;;;;5054677;28;20056;-75
2023/06/20 03:31:26;;;;;;;19.02;13.80;;;17.60;99.90;;;;;;5022123;28;20044;-74
2023/06/20 03:33:52;;;;;;;18.40;13.55;;;17.60;99.90;;;;;;5037889;28;20049;-72
2023/06/20 03:36:17;;;;;;;20.48;14.07;;;17.60;99.90;;;;;;5054553;28;20127;-74
2023/06/20 03:38:43;;;;;;;16.88;12.73;;;17.60;99.90;;;;;;5072346;28;20559;-74
2023/06/20 03:41:09;;;;;;;17.77;13.32;;;17.60;99.90;;;;;;5054242;28;20119;-75
2023/06/20 03:43:35;;;;;;;19.98;13.70;;;17.60;99.90;;;;;;5054041;28;20041;-75
2023/06/20 03:46:00;;;;;;;19.63;14.00;;;17.60;99.90;;;;;;5054006;28;20135;-75
2023/06/20 03:48:26;;;;;;;18.65;14.52;;;17.60;99.90;;;;;;5072256;28;20478;-75
2023/06/20 03:50:52;;;;;;;20.05;14.02;;;17.60;99.90;;;;;;5038276;28;20131;-71
2023/06/20 03:53:18;;;;;;;21.88;14.05;;;17.60;99.90;;;;;;5072179;28;20071;-74
2023/06/20 03:55:44;;;;;;;16.63;13.98;;;17.50;99.90;;;;;;5072283;28;20474;-75
2023/06/20 03:58:10;;;;;;;20.20;14.32;;;17.50;99.90;;;;;;5054334;28;20382;-74
2023/06/20 04:00:36;;;;;;;17.05;13.60;;;17.50;99.90;;;;;;5072772;28;20090;-74
2023/06/20 04:03:02;;;;;;;17.20;14.20;;;17.50;99.90;;;;;;5021153;28;20139;-75
2023/06/20 04:05:28;;;;;;;20.92;13.95;;;17.50;99.90;;;;;;5054396;28;20045;-75
2023/06/20 04:07:54;;;;;;;17.75;14.52;;;17.50;99.90;;;;;;5054883;28;20067;-72
2023/06/20 04:10:20;;;;;;;16.88;12.88;;;17.60;99.90;;;;;;5037880;28;20048;-76
2023/06/20 04:12:46;;;;;;;17.85;14.05;;;17.60;99.90;;;;;;5053815;28;20053;-74
2023/06/20 04:15:12;;;;;;;17.58;13.13;;;17.60;99.90;;;;;;5071685;28;20041;-74
2023/06/20 04:17:40;;;;;;;14.95;12.40;;;17.60;99.90;;;;;;5072344;28;20048;-75
2023/06/20 04:20:12;;;;;;;18.63;12.80;;;17.60;99.90;;;;;;5071359;28;20044;-75
2023/06/20 04:22:44;;;;;;;15.98;12.55;;;17.70;99.90;;;;;;5037952;28;20052;-74
2023/06/20 04:25:11;;;;;;;16.27;13.02;;;17.70;99.90;;;;;;5053809;28;20470;-75
2023/06/20 04:27:37;;;;;;;16.15;12.00;;;17.70;99.90;;;;;;5074115;28;20112;-75
2023/06/20 04:30:05;;;;;;;15.10;11.70;;;17.80;99.90;;;;;;5024675;28;20048;-74
2023/06/20 04:32:31;;;;;;;14.73;11.05;;;17.90;99.90;;;;;;5058462;28;20044;-75
2023/06/20 04:34:57;;;;;;;16.38;11.38;;;17.90;99.90;;;;;;5058133;28;20094;-75
2023/06/20 04:37:22;;;;;;;16.55;11.70;;;18.00;99.90;;;;;;5057953;28;20401;-75
2023/06/20 04:39:48;;;;;;;17.77;11.50;;;18.00;99.90;;;;;;5058179;28;20087;-75
2023/06/20 04:42:14;;;;;;;13.48;10.90;;;18.10;99.90;;;;;;5040772;28;20040;-76
2023/06/20 04:44:40;;;;;;;12.80;11.02;;;18.20;99.90;;;;;;5057440;28;20048;-75
2023/06/20 04:47:06;;;;;;;12.48;10.52;;;18.20;99.90;;;;;;5075209;28;20052;-75
2023/06/20 04:49:32;;;;;;;14.13;10.77;;;18.30;99.90;;;;;;5057873;28;20041;-74
2023/06/20 04:52:00;;;;;;;13.90;10.60;;;18.40;99.90;;;;;;5057598;28;20462;-75
2023/06/20 04:54:26;;;;;;;12.73;10.80;;;18.50;99.90;;;;;;5008730;28;20049;-75
2023/06/20 04:56:51;;;;;;;14.52;11.10;;;18.50;99.90;;;;;;5057251;28;20044;-76
2023/06/20 04:59:17;;;;;;;14.60;10.82;;;18.60;99.90;;;;;;5057056;28;20047;-74
2023/06/20 05:01:43;;;;;;;13.98;11.35;;;18.60;99.90;;;;;;5075017;28;20044;-75
2023/06/20 05:04:08;;;;;;;14.13;10.98;;;18.60;99.90;;;;;;5056762;28;20040;-73
2023/06/20 05:06:34;;;;;;;17.13;11.35;;;18.60;99.90;;;;;;5057275;28;20052;-74
2023/06/20 05:09:00;;;;;;;13.88;11.13;;;18.70;99.90;;;;;;5040586;28;20075;-74
2023/06/20 05:11:26;;;;;;;14.57;11.02;;;18.60;99.90;;;;;;5074797;28;20375;-74
2023/06/20 05:13:52;;;;;;;14.40;10.18;;;18.70;99.90;;;;;;5057611;28;20052;-74
2023/06/20 05:16:18;;;;;;;16.00;10.98;;;18.60;99.90;;;;;;5057019;28;20429;-75
2023/06/20 05:18:46;;;;;;;14.80;10.50;;;18.60;99.90;;;;;;5040470;28;20474;-75
2023/06/20 05:21:12;;;;;;;13.73;10.85;;;18.60;99.90;;;;;;5057591;28;20481;-76
2023/06/20 05:23:38;;;;;;;14.32;10.48;;;18.60;99.90;;;;;;5041038;28;20052;-74
2023/06/20 05:26:03;;;;;;;16.58;11.13;;;18.50;99.90;;;;;;5024803;28;20060;-75
2023/06/20 05:28:29;;;;;;;16.20;11.10;;;18.50;99.90;;;;;;5075253;28;20062;-75
2023/06/20 05:30:55;;;;;;;13.48;10.55;;;18.60;99.90;;;;;;5056856;28;20123;-74
2023/06/20 05:33:21;;;;;;;13.60;10.55;;;18.50;99.90;;;;;;5040039;28;20071;-74
2023/06/20 05:35:46;;;;;;;15.30;10.93;;;18.50;99.90;;;;;;5024192;28;20478;-73
2023/06/20 05:38:13;;;;;;;14.40;10.38;;;18.60;99.90;;;;;;5074174;28;20079;-73
2023/06/20 05:40:39;;;;;;;13.95;10.40;;;18.60;99.90;;;;;;5073830;28;20044;-74
2023/06/20 05:43:05;;;;;;;12.80;10.18;;;18.70;99.90;;;;;;5056534;28;20044;-75
2023/06/20 05:45:30;;;;;;;14.48;10.90;;;18.70;99.90;;;;;;5073043;28;20080;-74
2023/06/20 05:47:58;;;;;;;12.90;10.80;;;18.70;99.90;;;;;;5073976;28;20105;-72
2023/06/20 05:50:25;;;;;;;14.75;9.57;;;18.70;99.90;;;;;;5040026;28;20052;-74
2023/06/20 05:52:51;;;;;;;15.48;10.73;;;18.70;99.90;;;;;;5073569;28;20466;-75
2023/06/20 05:55:17;;;;;;;13.25;11.07;;;18.70;99.90;;;;;;5023393;28;20059;-75
2023/06/20 05:57:43;;;;;;;12.93;10.63;;;18.70;99.90;;;;;;5056864;28;20059;-74
2023/06/20 06:00:12;;;;;;;15.95;11.05;;;18.70;99.90;;;;;;5074175;28;20080;-73
2023/06/20 06:02:45;;;;;;;18.27;11.07;;;18.70;99.90;;;;;;5040727;28;20107;-74
2023/06/20 06:05:11;;;;;;;13.90;10.93;;;18.70;99.90;;;;;;5056547;28;20201;-72
2023/06/20 06:07:38;;;;;;;16.10;11.15;;;18.80;99.90;;;;;;5023380;28;20068;-75
2023/06/20 06:10:07;;;;;;;15.45;11.40;;;18.80;99.90;;;;;;5056200;28;20525;-76
2023/06/20 06:12:36;;;;;;;16.33;11.07;;;18.80;99.90;;;;;;5036207;28;20061;-75
2023/06/20 06:15:06;;;;;;;15.60;10.95;;;18.90;99.90;;;;;;5053942;28;20049;-74
2023/06/20 06:17:32;;;;;;;13.38;11.25;;;18.90;99.90;;;;;;5053800;28;20090;-75
2023/06/20 06:19:58;;;;;;;16.98;12.23;;;18.90;99.90;;;;;;5053089;28;20131;-75
2023/06/20 06:22:24;;;;;;;16.23;11.30;;;18.90;99.90;;;;;;5053117;28;20132;-72
2023/06/20 06:24:51;;;;;;;17.58;12.00;;;19.00;99.90;;;;;;5052754;28;20091;-74
2023/06/20 06:27:17;;;;;;;19.77;12.15;;;19.00;99.90;;;;;;5053265;28;20052;-72
2023/06/20 06:29:43;;;;;;;17.40;12.50;;;19.00;99.90;;;;;;5052156;28;20053;-72
2023/06/20 06:32:10;;;;;;;16.30;11.98;;;19.10;99.90;;;;;;5052230;28;20120;-72
2023/06/20 06:34:36;;;;;;;17.00;12.38;;;19.10;99.90;;;;;;5051811;28;20049;-73
2023/06/20 06:37:03;;;;;;;14.20;11.00;;;19.20;99.90;;;;;;5053214;28;20072;-72
2023/06/20 06:39:29;;;;;;;15.55;11.43;;;19.20;99.90;;;;;;5051134;28;20049;-72
2023/06/20 06:41:55;;;;;;;17.75;12.18;;;19.30;99.90;;;;;;5051511;28;20045;-73
2023/06/20 06:44:21;;;;;;;15.85;11.25;;;19.40;99.90;;;;;;5052282;28;20431;-72
2023/06/20 06:46:47;;;;;;;15.38;11.50;;;19.40;99.90;;;;;;5051355;28;20067;-72
2023/06/20 06:49:13;;;;;;;17.77;12.15;;;19.50;99.90;;;;;;5051893;28;20048;-73
2023/06/20 06:51:39;;;;;;;21.33;12.02;;;19.60;99.90;;;;;;5033640;28;20056;-72
2023/06/20 06:54:05;;;;;;;13.93;11.13;;;19.60;99.90;;;;;;5052568;28;20056;-72
2023/06/20 06:56:30;;;;;;;18.98;11.80;;;19.70;99.90;;;;;;5052354;28;20045;-74
2023/06/20 06:59:00;;;;;;;15.73;11.40;;;19.80;99.90;;;;;;5052004;28;20040;-71
2023/06/20 07:01:28;;;;;;;14.00;11.68;;;19.80;99.90;;;;;;5052307;28;20084;-73
2023/06/20 07:03:55;;;;;;;15.93;11.90;;;19.90;99.90;;;;;;5052032;28;20048;-73
2023/06/20 07:06:21;;;;;;;17.33;12.73;;;20.00;99.90;;;;;;4939594;28;28211;-72
2023/06/20 07:08:47;;;;;;;16.33;11.63;;;20.10;99.90;;;;;;5033682;28;20087;-74
2023/06/20 07:11:13;;;;;;;17.02;11.65;;;20.10;99.90;;;;;;5051626;28;20080;-72
2023/06/20 07:13:38;;;;;;;16.25;12.02;;;20.20;99.90;;;;;;5052301;28;20048;-73
2023/06/20 07:16:04;;;;;;;14.43;10.80;;;20.30;99.90;;;;;;5035015;28;20445;-73
2023/06/20 07:18:30;;;;;;;19.70;11.30;;;20.30;99.90;;;;;;5051603;28;20139;-72
2023/06/20 07:20:59;;;;;;;14.07;11.55;;;20.40;99.90;;;;;;5034717;28;20083;-72
2023/06/20 07:23:25;;;;;;;16.13;11.70;;;20.40;99.90;;;;;;5051384;28;20075;-74
2023/06/20 07:25:51;;;;;;;14.88;11.50;;;20.40;99.90;;;;;;5051745;28;20044;-73
2023/06/20 07:28:17;;;;;;;17.75;12.02;;;20.50;99.90;;;;;;5053305;28;20053;-78
2023/06/20 07:30:42;;;;;;;14.80;11.25;;;20.60;99.90;;;;;;5051610;28;20254;-74
2023/06/20 07:33:08;;;;;;;13.30;10.82;;;20.70;99.90;;;;;;5051923;28;20049;-74
2023/06/20 07:35:34;;;;;;;16.20;11.30;;;20.70;99.90;;;;;;5034666;28;20090;-74
2023/06/20 07:38:00;;;;;;;17.42;10.70;;;20.80;99.90;;;;;;5052698;28;20055;-72
2023/06/20 07:40:25;;;;;;;15.88;9.95;;;20.80;99.90;;;;;;5031801;28;20036;-73
2023/06/20 07:42:51;;;;;;;12.85;10.23;;;20.90;99.90;;;;;;5035020;28;20045;-72
2023/06/20 07:45:17;;;;;;;14.18;11.35;;;21.00;99.90;;;;;;5018233;28;20045;-72
2023/06/20 07:47:42;;;;;;;13.80;9.77;;;21.00;99.90;;;;;;5051083;28;20076;-72
2023/06/20 07:50:09;;;;;;;15.25;11.00;;;21.10;99.90;;;;;;5051339;28;20463;-72
2023/06/20 07:52:35;;;;;;;14.32;9.85;;;21.20;99.90;;;;;;5050660;28;20489;-71
2023/06/20 07:55:03;;;;;;;14.98;11.25;;;21.20;99.90;;;;;;5049716;28;20044;-73
2023/06/20 07:57:28;;;;;;;14.05;10.65;;;21.30;99.90;;;;;;5051003;28;20048;-72
2023/06/20 07:59:54;;;;;;;14.50;10.35;;;21.40;99.90;;;;;;5052574;28;20051;-72
2023/06/20 08:02:21;;;;;;;12.13;10.00;;;21.50;99.90;;;;;;5035551;28;20057;-72
2023/06/20 08:04:48;;;;;;;12.60;10.57;;;21.60;99.90;;;;;;5039338;28;20106;-72
2023/06/20 08:07:14;;;;;;;14.20;10.50;;;21.60;99.90;;;;;;5056098;28;20041;-75
2023/06/20 08:09:40;;;;;;;17.05;10.88;;;21.70;99.90;;;;;;5070463;28;20148;-76
2023/06/20 08:12:07;;;;;;;14.95;10.65;;;21.90;99.90;;;;;;5067021;28;20076;-72
2023/06/20 08:14:33;;;;;;;14.35;9.98;;;22.00;99.90;;;;;;5055200;28;20095;-71
2023/06/20 08:16:58;;;;;;;14.88;10.35;;;22.10;99.90;;;;;;5056167;28;20077;-71
2023/06/20 08:19:24;;;;;;;12.90;10.63;;;22.20;99.90;;;;;;5055322;28;20053;-71
2023/06/20 08:21:50;;;;;;;13.32;10.25;;;22.30;99.90;;;;;;5054502;28;20147;-71
2023/06/20 08:24:16;;;;;;;12.60;10.13;;;22.40;99.90;;;;;;5039147;28;20416;-71
2023/06/20 08:26:42;;;;;;;11.35;9.73;;;22.60;99.90;;;;;;5054969;28;20045;-72
2023/06/20 08:29:08;;;;;;;;;;;22.80;99.90;;;;;;5056813;28;20398;-71
2023/06/20 08:31:36;;;;;;;;;;;23.10;99.90;;;;;;5054143;28;19947;-72
2023/06/20 08:34:04;;;;;;;12.35;9.90;;;23.50;99.90;;;;;;5053726;28;19975;-73
2023/06/20 08:36:30;;;;;;;12.05;9.27;;;23.80;99.90;;;;;;5055885;28;20048;-75
2023/06/20 08:38:56;;;;;;;15.35;10.25;;;24.00;99.90;;;;;;5053475;28;20037;-74
2023/06/20 08:41:28;;;;;;;12.82;10.25;;;23.90;99.90;;;;;;5052872;28;20044;-73
2023/06/20 08:43:54;;;;;;;16.48;10.15;;;23.70;99.90;;;;;;5051521;28;20053;-71
2023/06/20 08:46:24;;;;;;;11.80;10.60;;;23.60;99.90;;;;;;5021328;28;20512;-72
2023/06/20 08:48:51;;;;;;;12.82;10.23;;;23.50;99.90;;;;;;5055234;28;20057;-72
2023/06/20 08:51:17;;;;;;;11.20;9.30;;;23.40;99.90;;;;;;5055476;28;20033;-71
2023/06/20 08:53:46;;;;;;;12.63;9.70;;;23.30;99.90;;;;;;5053748;28;20199;-71
2023/06/20 08:56:18;;;;;;;12.32;9.80;;;23.20;99.90;;;;;;5053708;28;20049;-71
2023/06/20 08:58:44;;;;;;;13.30;10.35;;;23.20;99.90;;;;;;5054233;28;20356;-71
2023/06/20 09:01:10;;;;;;;12.82;9.63;;;23.10;99.90;;;;;;5053919;28;20049;-70
2023/06/20 09:03:36;;;;;;;12.63;9.63;;;23.10;99.90;;;;;;5037770;28;20111;-70
2023/06/20 09:06:03;;;;;;;12.07;9.57;;;23.10;99.90;;;;;;5054488;28;20483;-71
2023/06/20 09:08:40;;;;;;;12.85;9.45;;;23.10;99.90;;;;;;5054415;28;20055;-72
2023/06/20 09:11:08;;;;;;;15.07;9.63;;;23.20;99.90;;;;;;5060695;28;20060;-72
2023/06/20 09:13:33;;;;;;;11.90;8.75;;;23.30;99.90;;;;;;5057065;28;20040;-73
2023/06/20 09:16:07;;;;;;;10.95;9.85;;;23.50;99.90;;;;;;5056830;28;20608;-72
2023/06/20 09:18:34;;;;;;;13.43;10.33;;;23.60;99.90;;;;;;5074846;28;20048;-73
2023/06/20 09:21:03;;;;;;;11.68;9.60;;;23.70;99.90;;;;;;5057963;28;20044;-74
2023/06/20 09:23:33;;;;;;;10.98;9.55;;;23.70;99.90;;;;;;5074699;28;20079;-72
2023/06/20 09:26:18;;;;;;;15.40;10.15;;;23.80;99.90;;;;;;5056604;28;20092;-71
2023/06/20 09:28:44;;;;;;;11.55;9.27;;;23.90;99.90;;;;;;5040168;28;20375;-72
2023/06/20 09:31:10;;;;;;;11.00;9.27;;;23.90;99.90;;;;;;5057221;28;20055;-72
2023/06/20 09:33:37;;;;;;;12.82;10.60;;;24.00;99.90;;;;;;5075140;28;20106;-70
2023/06/20 09:36:16;;;;;;;14.43;10.00;;;24.00;99.90;;;;;;5040946;28;20045;-72
2023/06/20 09:38:51;;;;;;;11.57;10.07;;;24.10;99.90;;;;;;5064020;28;20052;-73
2023/06/20 09:41:17;;;;;;;15.05;10.80;;;24.10;99.90;;;;;;5085255;28;20060;-71
2023/06/20 09:43:43;;;;;;;13.20;10.43;;;24.20;99.90;;;;;;5059737;28;20055;-72
2023/06/20 09:46:09;;;;;;;13.43;9.95;;;24.20;99.90;;;;;;5075397;28;20040;-72
2023/06/20 09:48:37;;;;;;;10.65;9.55;;;24.30;99.90;;;;;;5074665;28;20501;-74
2023/06/20 09:51:05;;;;;;;14.85;9.82;;;24.50;99.90;;;;;;5056549;28;20055;-70
2023/06/20 09:53:41;;;;;;;11.43;9.63;;;24.60;99.90;;;;;;5075077;28;20048;-70
2023/06/20 09:56:08;;;;;;;12.93;10.10;;;24.80;99.90;;;;;;5056451;28;20048;-70
2023/06/20 09:58:35;;;;;;;11.50;9.43;;;24.90;99.90;;;;;;5056116;28;20132;-68
2023/06/20 10:01:02;;;;;;;12.90;10.07;;;25.20;99.90;;;;;;5073707;28;20052;-69
2023/06/20 10:03:29;;;;;;;12.38;8.60;;;25.40;99.90;;;;;;5039740;28;20059;-70
2023/06/20 10:05:56;;;;;;;10.73;9.10;;;25.60;99.90;;;;;;5055935;28;20044;-69
2023/06/20 10:08:22;;;;;;;8.30;7.50;;;25.70;99.90;;;;;;5056377;28;20118;-68
2023/06/20 10:10:48;;;;;;;11.15;8.52;;;25.90;99.90;;;;;;5022623;28;20576;-68
2023/06/20 10:13:14;;;;;;;10.50;9.27;;;26.00;99.90;;;;;;5055994;28;20085;-69
2023/06/20 10:15:40;;;;;;;13.90;9.00;;;26.30;99.90;;;;;;5073705;28;20056;-71
2023/06/20 10:18:19;;;;;;;10.15;8.32;;;26.40;99.90;;;;;;5022560;28;20055;-70
2023/06/20 10:20:44;;;;;;;12.93;8.27;;;26.50;99.90;;;;;;5073055;28;20474;-70
2023/06/20 10:23:10;;;;;;;10.77;9.10;;;26.60;99.90;;;;;;5055593;28;20186;-69
2023/06/20 10:25:53;;;;;;;8.30;7.30;;;26.70;99.90;;;;;;5071493;28;20048;-70
2023/06/20 10:28:20;;;;;;;9.55;8.57;;;26.60;99.90;;;;;;5073870;28;20505;-70
2023/06/20 10:30:55;;;;;;;9.73;8.48;;;26.60;99.90;;;;;;5055813;28;20174;-71
2023/06/20 10:33:32;;;;;;;10.93;8.35;;;26.50;99.90;;;;;;5072754;28;20049;-69
2023/06/20 10:36:03;;;;;;;8.95;8.05;;;26.60;99.90;;;;;;5055355;28;20513;-71
2023/06/20 10:38:37;;;;;;;12.27;7.60;;;26.70;99.90;;;;;;5072057;28;20086;-71
2023/06/20 10:41:05;;;;;;;8.98;7.05;;;26.60;99.90;;;;;;5073545;28;20110;-78
2023/06/20 10:43:49;;;;;;;8.82;6.80;;;26.70;99.90;;;;;;5056187;28;20421;-73
2023/06/20 10:46:15;;;;;;;;;;;26.70;99.90;;;;;;5074188;28;20056;-72
2023/06/20 10:48:41;;;;;;;8.45;6.00;;;26.70;99.90;;;;;;5055824;28;19920;-75
2023/06/20 10:51:08;;;;;;;8.38;6.65;;;26.70;99.90;;;;;;5055563;28;20055;-73
2023/06/20 10:53:34;;;;;;;9.32;7.90;;;26.80;99.90;;;;;;5072488;28;20071;-73
2023/06/20 10:55:59;;;;;;;9.93;7.25;;;26.80;99.90;;;;;;5055620;28;20528;-74
2023/06/20 10:58:25;;;;;;;9.27;7.00;;;26.90;99.90;;;;;;5072690;28;20049;-74
2023/06/20 11:00:52;;;;;;;9.32;6.03;;;27.00;99.90;;;;;;5055921;28;20129;-73
2023/06/20 11:03:20;;;;;;;8.35;6.47;;;27.00;99.90;;;;;;5056073;28;20050;-73
2023/06/20 11:05:51;;;;;;;9.45;7.20;;;27.10;99.90;;;;;;5039720;28;20056;-73
2023/06/20 11:08:27;;;;;;;9.45;6.47;;;27.10;99.90;;;;;;5076720;28;20045;-73
2023/06/20 11:10:55;;;;;;;7.68;6.32;;;27.00;99.90;;;;;;5085588;28;20040;-73
2023/06/20 11:13:23;;;;;;;8.68;6.50;;;26.90;99.90;;;;;;5064831;28;20052;-74
2023/06/20 11:15:50;;;;;;;7.10;6.35;;;26.90;99.90;;;;;;5056172;28;20102;-70
2023/06/20 11:18:16;;;;;;;11.00;6.32;;;26.90;99.90;;;;;;5023163;28;20494;-72
2023/06/20 11:20:43;;;;;;;9.10;7.35;;;26.90;99.90;;;;;;5038631;28;20106;-74
2023/06/20 11:23:10;;;;;;;7.80;6.00;;;26.90;99.90;;;;;;5073022;28;20047;-74
2023/06/20 11:25:38;;;;;;;7.30;6.47;;;26.70;99.90;;;;;;5055743;28;20052;-74
2023/06/20 11:28:13;;;;;;;7.10;5.78;;;26.80;99.90;;;;;;5056936;28;20049;-75
2023/06/20 11:30:44;;;;;;;8.75;6.07;;;26.90;99.90;;;;;;5073478;28;20047;-73
2023/06/20 11:33:12;;;;;;;7.22;5.90;;;27.00;99.90;;;;;;5054707;28;20053;-73
2023/06/20 11:35:56;;;;;;;6.30;5.05;;;27.00;99.90;;;;;;5073105;28;20048;-74
2023/06/20 11:38:26;;;;;;;;;;;27.10;99.90;;;;;;5039066;28;20123;-77
2023/06/20 11:41:04;;;;;;;7.07;5.65;;;27.10;99.90;;;;;;5054568;28;19989;-72
2023/06/20 11:43:43;;;;;;;8.02;6.20;;;27.10;99.90;;;;;;5072035;28;20055;-73
2023/06/20 11:46:10;;;;;;;7.70;6.88;;;27.20;99.90;;;;;;5054528;28;20052;-73
2023/06/20 11:48:36;;;;;;;9.07;6.47;;;27.30;99.90;;;;;;5071404;28;20048;-73
2023/06/20 11:51:05;;;;;;;7.90;6.22;;;27.40;99.90;;;;;;5054284;28;20107;-72
2023/06/20 11:53:36;;;;;;;9.52;6.68;;;27.40;99.90;;;;;;5072578;28;20127;-73
2023/06/20 11:56:06;;;;;;;8.77;6.38;;;27.40;99.90;;;;;;5054662;28;20059;-73
2023/06/20 11:58:40;;;;;;;8.32;6.90;;;27.50;99.90;;;;;;5054843;28;20053;-72
2023/06/20 12:01:08;;;;;;;;;;;27.50;99.90;;;;;;5055736;28;20039;-70
2023/06/20 12:03:36;;;;;;;8.48;6.70;;;27.50;99.90;;;;;;5054638;28;19920;-72
2023/06/20 12:06:02;;;;;;;8.27;7.18;;;27.40;99.90;;;;;;5072215;28;20048;-72
2023/06/20 12:08:34;;;;;;;9.07;7.50;;;27.40;99.90;;;;;;5072363;28;20044;-74
2023/06/20 12:11:02;;;;;;;7.82;6.63;;;27.50;99.90;;;;;;5054271;28;20068;-72
2023/06/20 12:13:29;;;;;;;8.00;7.22;;;27.50;99.90;;;;;;5054831;28;20056;-72
2023/06/20 12:15:56;;;;;;;9.90;6.55;;;27.40;99.90;;;;;;5054965;28;20127;-71
2023/06/20 12:18:21;;;;;;;7.55;6.43;;;27.40;99.90;;;;;;5038330;28;20466;-71
2023/06/20 12:20:47;;;;;;;7.53;6.65;;;27.50;99.90;;;;;;5072373;28;20040;-70
2023/06/20 12:23:14;;;;;;;9.60;6.88;;;27.50;99.90;;;;;;5054226;28;20083;-71
2023/06/20 12:25:39;;;;;;;10.02;6.50;;;27.60;99.90;;;;;;5072446;28;20044;-72
2023/06/20 12:28:05;;;;;;;10.70;6.95;;;27.60;99.90;;;;;;5071770;28;20387;-71
2023/06/20 12:30:31;;;;;;;9.75;7.45;;;27.60;99.90;;;;;;5054452;28;20040;-73
2023/06/20 12:32:58;;;;;;;10.73;7.80;;;27.60;99.90;;;;;;5037880;28;20049;-70
2023/06/20 12:35:26;;;;;;;9.98;7.35;;;27.60;99.90;;;;;;5038370;28;20486;-72
2023/06/20 12:37:52;;;;;;;8.45;7.05;;;27.70;99.90;;;;;;5055625;28;20114;-72